createdAt,value
2022-10-21T00:03:14.668Z,6.20
2022-10-21T00:08:13.691Z,8.56
2022-10-21T00:13:12.587Z,10.45
2022-10-21T00:18:11.599Z,11.19
2022-10-21T00:23:10.701Z,6.13
2022-10-21T00:28:09.824Z,5.60
2022-10-21T00:33:11.824Z,4.92
2022-10-21T00:38:10.739Z,8.02
2022-10-21T00:43:09.832Z,8.76
2022-10-21T00:48:08.640Z,7.69
2022-10-21T00:53:07.647Z,7.62
2022-10-21T00:58:06.841Z,5.19
2022-10-21T01:03:05.818Z,3.91
2022-10-21T01:08:04.681Z,4.99
2022-10-21T01:13:03.696Z,8.83
2022-10-21T01:18:02.712Z,4.92
2022-10-21T01:23:01.727Z,4.52
2022-10-21T01:28:00.556Z,11.33
2022-10-21T01:32:59.785Z,4.11
2022-10-21T01:37:58.754Z,3.78
2022-10-21T01:42:57.764Z,3.44
2022-10-21T01:47:56.784Z,6.47
2022-10-21T01:52:55.789Z,3.78
2022-10-21T01:57:54.796Z,5.73
2022-10-21T02:02:53.904Z,3.57
2022-10-21T02:07:52.833Z,5.26
2022-10-21T02:12:51.821Z,3.03
2022-10-21T02:17:50.856Z,5.53
2022-10-21T02:22:49.859Z,3.57
2022-10-21T02:27:48.687Z,3.64
2022-10-21T02:32:47.762Z,4.38
2022-10-21T02:37:46.900Z,4.04
2022-10-21T02:42:45.691Z,5.60
2022-10-21T02:47:46.621Z,3.37
2022-10-21T02:52:45.785Z,3.84
2022-10-21T02:57:44.694Z,2.83
2022-10-21T03:02:43.785Z,6.54
2022-10-21T03:07:42.705Z,4.52
2022-10-21T03:12:41.829Z,6.40
2022-10-21T03:17:41.128Z,2.83
2022-10-21T03:22:40.858Z,3.30
2022-10-21T03:27:39.873Z,4.65
2022-10-21T03:32:39.179Z,6.47
2022-10-21T03:37:38.912Z,4.99
2022-10-21T03:42:38.148Z,3.71
2022-10-21T03:47:36.734Z,3.37
2022-10-21T03:52:36.062Z,2.22
2022-10-21T03:57:35.896Z,3.57
2022-10-21T04:02:34.898Z,5.60
2022-10-21T04:07:33.781Z,7.01
2022-10-21T04:12:32.825Z,3.10
2022-10-21T04:17:31.819Z,4.25
2022-10-21T04:22:30.850Z,3.78
2022-10-21T04:27:29.779Z,3.71
2022-10-21T04:32:28.682Z,4.11
2022-10-21T04:37:27.998Z,2.43
2022-10-21T04:47:25.969Z,4.31
2022-10-21T04:52:24.961Z,2.83
2022-10-21T04:57:23.800Z,4.25
2022-10-21T05:02:25.489Z,3.91
2022-10-21T05:07:24.818Z,5.80
2022-10-21T05:12:23.856Z,4.45
2022-10-21T05:17:22.841Z,2.63
2022-10-21T05:22:21.846Z,5.86
2022-10-21T05:27:20.809Z,5.12
2022-10-21T05:32:19.795Z,3.30
2022-10-21T05:37:18.934Z,2.56
2022-10-21T05:42:17.781Z,6.40
2022-10-21T05:47:16.898Z,3.57
2022-10-21T05:52:15.974Z,4.92
2022-10-21T05:57:14.921Z,3.57
2022-10-21T06:02:14.022Z,3.37
2022-10-21T06:07:13.042Z,3.84
2022-10-21T06:12:11.955Z,3.78
2022-10-21T06:17:10.993Z,3.78
2022-10-21T06:22:09.815Z,4.85
2022-10-21T06:27:09.005Z,3.64
2022-10-21T06:32:07.842Z,4.45
2022-10-21T06:37:07.004Z,4.52
2022-10-21T06:42:14.824Z,7.89
2022-10-21T06:47:13.836Z,4.18
2022-10-21T06:52:12.910Z,7.48
2022-10-21T06:57:11.933Z,5.33
2022-10-21T07:02:10.898Z,6.07
2022-10-21T07:07:09.956Z,7.82
2022-10-21T07:12:08.998Z,7.62
2022-10-21T07:17:07.848Z,8.70
2022-10-21T07:22:06.933Z,5.53
2022-10-21T07:27:05.860Z,5.33
2022-10-21T07:32:04.974Z,5.60
2022-10-21T07:37:03.879Z,6.27
2022-10-21T07:42:03.000Z,10.45
2022-10-21T07:47:01.885Z,8.22
2022-10-21T07:52:01.127Z,7.21
2022-10-21T07:56:59.769Z,12.81
2022-10-21T08:01:58.869Z,11.39
2022-10-21T08:06:57.941Z,7.28
2022-10-21T08:11:57.647Z,5.06
2022-10-21T08:16:56.883Z,7.42
2022-10-21T08:21:56.100Z,8.02
2022-10-21T08:26:55.116Z,5.39
2022-10-21T08:31:54.090Z,7.48
2022-10-21T08:36:55.943Z,4.58
2022-10-21T08:41:54.986Z,8.29
2022-10-21T08:46:54.016Z,5.60
2022-10-21T08:51:53.151Z,6.40
2022-10-21T08:56:52.024Z,4.52
2022-10-21T09:01:51.043Z,5.19
2022-10-21T09:06:50.179Z,9.30
2022-10-21T09:11:49.051Z,7.48
2022-10-21T09:16:48.067Z,6.34
2022-10-21T09:21:47.000Z,3.10
2022-10-21T09:26:45.841Z,11.86
2022-10-21T09:31:46.303Z,4.11
2022-10-21T09:36:47.925Z,4.18
2022-10-21T09:41:46.995Z,4.11
2022-10-21T09:46:46.219Z,3.51
2022-10-21T09:51:46.060Z,4.18
2022-10-21T09:56:45.082Z,3.51
2022-10-21T10:01:44.132Z,5.66
2022-10-21T10:06:43.095Z,4.79
2022-10-21T10:11:42.215Z,4.85
2022-10-21T10:16:41.012Z,4.18
2022-10-21T10:21:40.146Z,3.84
2022-10-21T10:26:41.026Z,3.44
2022-10-21T10:31:40.002Z,2.83
2022-10-21T10:36:39.019Z,4.79
2022-10-21T10:41:38.036Z,4.04
2022-10-21T10:46:37.084Z,4.52
2022-10-21T10:51:36.036Z,4.92
2022-10-21T10:56:36.087Z,1.69
2022-10-21T11:01:35.084Z,4.38
2022-10-21T11:06:34.183Z,2.43
2022-10-21T11:11:33.095Z,5.33
2022-10-21T11:16:44.929Z,4.04
2022-10-21T11:21:33.290Z,4.25
2022-10-21T11:26:32.040Z,2.49
2022-10-21T11:31:31.719Z,2.97
2022-10-21T11:36:31.046Z,3.84
2022-10-21T11:41:30.507Z,3.57
2022-10-21T11:46:28.959Z,10.25
2022-10-21T11:51:28.068Z,9.24
2022-10-21T11:56:26.968Z,12.00
2022-10-21T12:01:26.267Z,8.29
2022-10-21T12:06:25.097Z,9.17
2022-10-21T12:11:24.034Z,15.71
2022-10-21T12:16:23.029Z,19.42
2022-10-21T12:21:21.989Z,14.36
2022-10-21T12:26:21.059Z,13.01
2022-10-21T12:31:20.072Z,10.99
2022-10-21T12:36:19.180Z,9.17
2022-10-21T12:41:17.965Z,12.27
2022-10-21T12:46:16.983Z,10.65
2022-10-21T12:51:16.205Z,5.80
2022-10-21T12:56:15.245Z,5.60
2022-10-21T13:01:14.136Z,3.64
2022-10-21T13:06:13.220Z,4.79
2022-10-21T13:11:12.259Z,4.58
2022-10-21T13:16:11.097Z,4.11
2022-10-21T13:21:10.251Z,3.73
2022-10-21T13:26:09.109Z,3.21
2022-10-21T13:31:08.369Z,2.56
2022-10-21T13:36:08.133Z,3.00
2022-10-21T13:41:07.252Z,3.07
2022-10-21T13:46:06.161Z,3.64
2022-10-21T13:51:05.162Z,3.16
2022-10-21T13:56:04.300Z,2.39
2022-10-21T14:01:03.220Z,3.58
2022-10-21T14:06:02.269Z,3.29
2022-10-21T14:11:01.187Z,2.24
2022-10-21T14:16:00.238Z,2.05
2022-10-21T14:21:02.150Z,2.68
2022-10-21T14:26:01.311Z,3.45
2022-10-21T14:31:01.012Z,3.65
2022-10-21T14:36:00.173Z,3.24
2022-10-21T14:40:59.709Z,1.98
2022-10-21T14:45:58.189Z,3.48
2022-10-21T14:50:59.253Z,3.12
2022-10-21T14:55:58.253Z,2.20
2022-10-21T15:00:57.094Z,3.67
2022-10-21T15:05:56.261Z,2.46
2022-10-21T15:10:55.287Z,4.29
2022-10-21T15:15:54.633Z,4.07
2022-10-21T15:20:53.290Z,3.64
2022-10-21T15:25:52.309Z,2.31
2022-10-21T15:30:52.507Z,3.08
2022-10-21T15:35:51.355Z,2.81
2022-10-21T15:40:50.277Z,3.16
2022-10-21T15:45:49.202Z,4.01
2022-10-21T15:50:48.241Z,3.16
2022-10-21T15:55:47.405Z,3.16
2022-10-21T16:00:46.333Z,3.36
2022-10-21T16:05:46.945Z,2.94
2022-10-21T16:10:47.378Z,3.14
2022-10-21T16:15:46.338Z,1.95
2022-10-21T16:20:45.195Z,3.90
2022-10-21T16:25:44.267Z,1.46
2022-10-21T16:30:43.263Z,2.77
2022-10-21T16:35:42.269Z,4.56
2022-10-21T16:40:41.393Z,9.58
2022-10-21T16:45:40.202Z,11.65
2022-10-21T16:50:40.117Z,8.75
2022-10-21T16:55:39.236Z,8.66
2022-10-21T17:00:38.570Z,7.31
2022-10-21T17:05:37.418Z,6.54
2022-10-21T17:10:36.235Z,6.30
2022-10-21T17:15:35.292Z,7.57
2022-10-21T17:20:34.596Z,5.12
2022-10-21T17:25:33.293Z,3.44
2022-10-21T17:30:33.154Z,5.53
2022-10-21T17:35:32.405Z,8.36
2022-10-21T17:40:31.350Z,6.81
2022-10-21T17:45:30.366Z,8.63
2022-10-21T17:50:29.264Z,6.67
2022-10-21T17:55:28.534Z,4.18
2022-10-21T18:00:27.445Z,6.34
2022-10-21T18:05:26.240Z,5.86
2022-10-21T18:10:25.493Z,4.38
2022-10-21T18:15:26.261Z,4.79
2022-10-21T18:20:25.277Z,2.16
2022-10-21T18:25:24.295Z,3.51
2022-10-21T18:30:23.301Z,5.39
2022-10-21T18:35:22.312Z,3.30
2022-10-21T18:40:21.320Z,9.51
2022-10-21T18:45:20.435Z,7.21
2022-10-21T18:50:19.347Z,7.95
2022-10-21T18:55:18.360Z,4.65
2022-10-21T19:00:17.267Z,12.74
2022-10-21T19:05:16.375Z,8.29
2022-10-21T19:10:15.407Z,2.16
2022-10-21T19:15:14.425Z,6.88
2022-10-21T19:20:14.215Z,4.65
2022-10-21T19:25:13.447Z,6.40
2022-10-21T19:30:12.443Z,5.80
2022-10-21T19:35:11.500Z,3.84
2022-10-21T19:40:10.537Z,4.31
2022-10-21T19:45:10.230Z,2.76
2022-10-21T19:50:09.582Z,7.42
2022-10-21T19:55:08.396Z,3.10
2022-10-21T20:00:09.240Z,5.12
2022-10-21T20:05:08.411Z,1.82
2022-10-21T20:10:07.431Z,2.90
2022-10-21T20:15:06.455Z,5.39
2022-10-21T20:20:05.419Z,4.45
2022-10-21T20:25:04.450Z,3.84
2022-10-21T20:30:03.572Z,3.91
2022-10-21T20:35:02.464Z,3.10
2022-10-21T20:40:01.557Z,3.37
2022-10-21T20:45:00.524Z,2.76
2022-10-21T20:49:59.508Z,4.79
2022-10-21T20:54:58.520Z,2.63
2022-10-21T21:00:00.535Z,3.98
2022-10-21T21:04:59.565Z,3.98
2022-10-21T21:10:02.740Z,2.43
2022-10-21T21:14:59.661Z,4.11
2022-10-21T21:19:58.498Z,3.78
2022-10-21T21:24:57.499Z,2.97
2022-10-21T21:29:56.750Z,2.76
2022-10-21T21:34:55.346Z,6.40
2022-10-21T21:39:54.598Z,3.37
2022-10-21T21:44:53.603Z,4.45
2022-10-21T21:49:52.465Z,3.17
2022-10-21T21:54:53.448Z,4.25
2022-10-21T21:59:52.385Z,3.10
2022-10-21T22:04:51.383Z,4.85
2022-10-21T22:09:50.457Z,4.92
2022-10-21T22:14:49.517Z,3.17
2022-10-21T22:19:52.924Z,4.58
2022-10-21T22:24:49.609Z,4.38
2022-10-21T22:29:48.523Z,5.06
2022-10-21T22:34:47.424Z,5.53
2022-10-21T22:39:46.537Z,6.54
2022-10-21T22:44:45.479Z,8.70
2022-10-21T22:49:44.659Z,6.20
2022-10-21T22:54:49.584Z,7.55
2022-10-21T22:59:48.230Z,4.18
2022-10-21T23:04:46.444Z,4.25
2022-10-21T23:09:45.548Z,4.52
2022-10-21T23:14:44.563Z,5.19
2022-10-21T23:19:43.569Z,3.24
2022-10-21T23:24:42.639Z,5.33
2022-10-21T23:29:41.604Z,4.31
2022-10-21T23:34:40.667Z,3.91
2022-10-21T23:39:39.616Z,3.03
2022-10-21T23:44:38.491Z,4.92
2022-10-21T23:49:37.708Z,5.39
2022-10-21T23:54:36.484Z,5.26
2022-10-21T23:59:36.214Z,5.26
